Flight Track Log - Related Links

Times and Time Zones

All times are in EDT time to prevent confusion due to time zone crossing. See the N201TT flight status page for this flight to view local times or setup timezone preferences in your user account.

Time Position Orientation Groundspeed Altitude Reporting Facility
EDT Latitude Longitude Course Direction KTS MPH feet Rate Location/Type
Mon 11:18:35 AM 39.6367 -88.8114 165° South 114 131 5,200  Level Kansas City Center
Mon 11:19:37 AM 39.6064 -88.8008 165° South 114 131 5,700 532 Climbing Kansas City Center
Mon 11:20:39 AM 39.5744 -88.7892 164° South 116 133 6,300 506 Climbing Kansas City Center
Mon 11:22:11 AM 39.5250 -88.7733 166° South 116 133 7,000 484 Climbing Chicago Center
Mon 11:22:43 AM 39.5042 -88.7692 171° South 117 135 7,300 511 Climbing Kansas City Center
Mon 11:23:45 AM 39.4714 -88.7683 179° South 117 135 7,800 435 Climbing Kansas City Center
Mon 11:24:47 AM 39.4367 -88.7736 187° South 118 136 8,200 339 Climbing Kansas City Center
Mon 11:25:49 AM 39.4003 -88.7878 197° South 124 143 8,500 242 Climbing Kansas City Center
Mon 11:26:51 AM 39.3647 -88.8022 197° South 131 151 8,700 97 Climbing Kansas City Center
Mon 11:27:53 AM 39.3217 -88.8158 194° South 149 171 8,700 97 Level Kansas City Center
Mon 11:28:55 AM 39.2689 -88.8317 193° South 159 183 8,900  Climbing Kansas City Center
Mon 11:29:57 AM 39.2219 -88.8458 193° South 168 193 8,700 -145 Descending Kansas City Center
Mon 11:30:59 AM 39.1750 -88.8617 195° South 172 198 8,600 -48 Descending Kansas City Center
Mon 11:32:01 AM 39.1267 -88.8764 193° South 176 203 8,600  Level Kansas City Center
Mon 11:33:03 AM 39.0758 -88.8933 195° South 175 201 8,600 -48 Level Kansas City Center
Mon 11:34:05 AM 39.0353 -88.9150 203° Southwest 173 199 8,500 -97 Descending Kansas City Center
Mon 11:35:07 AM 38.9908 -88.9386 202° Southwest 174 200 8,400 -435 Descending Kansas City Center
Mon 11:36:09 AM 38.9331 -88.9678 201° Southwest 180 207 7,600 -726 Descending Kansas City Center
Mon 11:37:11 AM 38.8917 -89.0119 220° Southwest 190 219 6,900 -484 Descending Kansas City Center
Mon 11:38:13 AM 38.8614 -89.0742 238° Southwest 190 219 6,600 -194 Descending Kansas City Center
Mon 11:39:15 AM 38.8239 -89.1069 214° Southwest 171 197 6,500 -48 Descending Kansas City Center
Mon 11:40:17 AM 38.7736 -89.1139 186° South 168 193 6,500 -71 Level Kansas City Center
Mon 11:42:04 AM 38.6908 -89.1275 187° South 178 205 6,300  Descending Indianapolis Center
Mon 11:43:05 AM 38.6467 -89.1417 194° South 171 197 6,500 244 Climbing Indianapolis Center
Mon 11:44:07 AM 38.6067 -89.1467 186° South 167 192 6,800 390 Climbing Indianapolis Center
Mon 11:45:08 AM 38.5744 -89.1333 162° South 142 163 7,300 549 Climbing Indianapolis Center
Mon 11:46:29 AM 38.5308 -89.1186 165° South 118 136 8,100 545 Climbing Kansas City Center
Mon 11:47:31 AM 38.4992 -89.1069 164° South 112 129 8,600 387 Climbing Kansas City Center
Mon 11:48:33 AM 38.4700 -89.0967 165° South 111 128 8,900 339 Climbing Kansas City Center
Mon 11:49:35 AM 38.4308 -89.1153 200° South 136 157 9,300 290 Climbing Kansas City Center
Mon 11:50:37 AM 38.3944 -89.1322 200° South 138 159 9,500 48 Climbing Kansas City Center
Mon 11:51:39 AM 38.3506 -89.1442 192° South 158 182 9,400 -97 Descending Kansas City Center
Mon 11:52:41 AM 38.2994 -89.1672 199° South 178 205 9,300 -48 Descending Kansas City Center
Mon 11:53:43 AM 38.2533 -89.1881 200° South 177 204 9,300 48 Level Kansas City Center
Mon 11:54:45 AM 38.2033 -89.2097 199° South 175 201 9,400  Climbing Kansas City Center
Mon 11:55:47 AM 38.1581 -89.2286 198° South 175 201 9,300 -48 Descending Kansas City Center
Mon 11:56:49 AM 38.1094 -89.2489 198° South 172 198 9,300 -97 Level Kansas City Center
Mon 11:57:51 AM 38.0639 -89.2678 198° South 171 197 9,100 -144 Descending Kansas City Center
Mon 11:58:54 AM 38.0192 -89.2878 199° South 170 196 9,000 -48 Descending Kansas City Center
Mon 11:59:56 AM 37.9697 -89.3125 202° Southwest 176 203 9,000  Level Kansas City Center
Mon 12:00:58 PM 37.9233 -89.3322 199° South 176 203 9,000  Level Kansas City Center
Mon 12:02:00 PM 37.8739 -89.3525 198° South 173 199 9,000 97 Level Kansas City Center
Mon 12:03:02 PM 37.8303 -89.3717 199° South 174 200 9,200 290 Climbing Kansas City Center
Mon 12:04:04 PM 37.7892 -89.3903 200° South 166 191 9,600 339 Climbing Kansas City Center
Mon 12:05:06 PM 37.7486 -89.4039 195° South 159 183 9,900 242 Climbing Kansas City Center
Mon 12:06:08 PM 37.7061 -89.4225 199° South 157 181 10,100 97 Climbing Kansas City Center
Mon 12:07:10 PM 37.6567 -89.4397 195° South 157 181 10,100 48 Level Kansas City Center
Mon 12:08:12 PM 37.6128 -89.4556 196° South 159 183 10,200  Climbing Kansas City Center
Mon 12:09:14 PM 37.5647 -89.4756 198° South 167 192 10,100 -48 Descending Kansas City Center
Mon 12:10:16 PM 37.5189 -89.4942 198° South 171 197 10,100  Level Kansas City Center
Mon 12:11:18 PM 37.4711 -89.5136 198° South 175 201 10,100 -48 Level Kansas City Center
Mon 12:12:20 PM 37.4242 -89.5342 199° South 177 204 10,000 -48 Descending Kansas City Center
Mon 12:13:22 PM 37.3694 -89.5581 199° South 176 203 10,000  Level Kansas City Center
Mon 12:14:24 PM 37.3236 -89.5747 196° South 174 200 10,000  Level Kansas City Center
Mon 12:16:02 PM 37.2525 -89.6142 204° Southwest 172 198 10,000  Level Memphis Center
Mon 12:17:02 PM 37.2069 -89.6328 198° South 172 198 10,000  Level Memphis Center
Mon 12:18:02 PM 37.1633 -89.6542 201° Southwest 172 198 10,000 67 Level Memphis Center
Mon 12:18:32 PM 37.1444 -89.6625 199° South 172 198 10,100 65 Climbing Kansas City Center
Mon 12:19:34 PM 37.0919 -89.6897 202° Southwest 170 196 10,100 -48 Level Kansas City Center
Mon 12:20:37 PM 37.0500 -89.7158 206° Southwest 169 194 10,000 -48 Descending Kansas City Center
Mon 12:21:38 PM 37.0078 -89.7419 206° Southwest 169 194 10,000 49 Level Kansas City Center
Mon 12:22:40 PM 36.9658 -89.7667 205° Southwest 168 193 10,100 42 Climbing Kansas City Center
Mon 12:24:02 PM 36.9078 -89.8069 209° Southwest 172 198 10,100  Level Memphis Center
Mon 12:25:02 PM 36.8661 -89.8306 204° Southwest 172 198 10,100  Level Memphis Center
Mon 12:26:02 PM 36.8267 -89.8592 210° Southwest 172 198 10,100  Level Memphis Center
Mon 12:27:02 PM 36.7831 -89.8856 206° Southwest 172 198 10,100  Level Memphis Center
Mon 12:28:02 PM 36.7436 -89.9142 210° Southwest 172 198 10,100  Level Memphis Center
Mon 12:29:02 PM 36.6978 -89.9300 195° South 177 204 10,100 -50 Level Memphis Center
Mon 12:30:02 PM 36.6478 -89.9353 185° South 172 198 10,000  Descending Memphis Center
Mon 12:31:02 PM 36.6019 -89.9433 188° South 172 198 10,100 50 Climbing Memphis Center
Mon 12:32:02 PM 36.5519 -89.9514 187° South 177 204 10,100  Level Memphis Center
Mon 12:33:02 PM 36.5061 -89.9542 183° South 177 204 10,100  Level Memphis Center
Mon 12:34:02 PM 36.4581 -89.9569 183° South 177 204 10,100  Level Memphis Center
Mon 12:35:02 PM 36.4103 -89.9597 183° South 177 204 10,100  Level Memphis Center
Mon 12:36:02 PM 36.3622 -89.9653 185° South 177 204 10,100  Level Memphis Center
Mon 12:37:02 PM 36.3164 -89.9681 183° South 177 204 10,100  Level Memphis Center
Mon 12:38:02 PM 36.2706 -89.9708 183° South 177 204 10,100  Level Memphis Center
Mon 12:39:02 PM 36.2225 -89.9686 178° South 177 204 10,100  Level Memphis Center
Mon 12:40:02 PM 36.1747 -89.9686 180° South 177 204 10,100 -50 Level Memphis Center
Mon 12:41:02 PM 36.1267 -89.9689 180° South 177 204 10,000 -33 Descending Memphis Center
Mon 12:43:02 PM 36.0350 -89.9694 180° South 177 204 10,000  Level Memphis Center
Mon 12:44:02 PM 35.9892 -89.9697 180° South 177 204 10,000  Level Memphis Center
Mon 12:45:02 PM 35.9411 -89.9700 180° South 177 204 10,000  Level Memphis Center
Mon 12:46:02 PM 35.8994 -89.9675 177° South 171 197 10,000  Level Memphis Center
Mon 12:47:02 PM 35.8514 -89.9703 183° South 171 197 10,000 33 Level Memphis Center
Mon 12:49:02 PM 35.7617 -89.9656 178° South 171 197 10,100 67 Climbing Memphis Center
Mon 12:50:02 PM 35.7158 -89.9683 183° South 166 191 10,200 200 Climbing Memphis Center
Mon 12:51:02 PM 35.6700 -89.9686 180° South 157 181 10,500 300 Climbing Memphis Center
Mon 12:52:02 PM 35.6303 -89.9689 180° South 149 171 10,800 350 Climbing Memphis Center
Mon 12:53:02 PM 35.5928 -89.9561 165° South 142 163 11,200 297 Climbing Memphis Center
Mon 12:55:24 PM 35.5167 -89.9167 157° South 137 158 11,800 238 Climbing KMEM
Mon 12:56:24 PM 35.4833 -89.8833 141° Southeast 135 155 12,000 200 Climbing KMEM
Mon 12:57:24 PM 35.4500 -89.8667 158° South 136 157 12,200 100 Climbing KMEM
Mon 12:58:24 PM 35.4000 -89.8500 165° South 146 168 12,200 -50 Level KMEM
Mon 12:59:24 PM 35.3667 -89.8167 141° Southeast 157 181 12,100 -50 Descending KMEM
Mon 01:00:24 PM 35.3333 -89.7833 141° Southeast 164 189 12,100  Level KMEM
Mon 01:01:24 PM 35.2833 -89.7667 165° South 163 188 12,100  Level KMEM
Mon 01:02:38 PM 35.2333 -89.7333 151° Southeast 161 185 12,100  Level KMEM
Mon 01:03:42 PM 35.2000 -89.7000 141° Southeast 157 181 12,100  Level KMEM
Mon 01:04:42 PM 35.1667 -89.6833 158° South 161 185 12,100 50 Level KMEM
Mon 01:05:42 PM 35.1167 -89.6500 151° Southeast 159 183 12,200 49 Climbing KMEM
Mon 01:06:45 PM 35.0833 -89.6167 141° Southeast 159 183 12,200  Level KMEM
Mon 01:07:27 PM 35.0667 -89.6000 141° Southeast 162 186 12,200  Level KMEM
Mon 01:09:00 PM 35.0031 -89.5631 155° Southeast  Level FlightAware Approximate
Mon 01:09:27 PM 34.9833 -89.5500 155° Southeast 162 186 12,200  Level KMEM
Mon 01:10:27 PM 34.9333 -89.5333 165° South 162 186 12,200  Level KMEM
Mon 01:12:50 PM 34.8394 -89.4714 152° Southeast 167 192 12,200  Level Memphis Center
Mon 01:13:50 PM 34.7994 -89.4442 151° Southeast 162 186 12,200 -100 Level Memphis Center
Mon 01:14:50 PM 34.7597 -89.4219 155° Southeast 162 186 12,000 -50 Descending Memphis Center
Mon 01:15:50 PM 34.7200 -89.3994 155° Southeast 156 180 12,100  Climbing Memphis Center
Mon 01:16:50 PM 34.6781 -89.3772 156° South 156 180 12,000 -150 Descending Memphis Center
Mon 01:17:50 PM 34.6403 -89.3550 154° Southeast 156 180 11,800 -200 Descending Memphis Center
Mon 01:18:50 PM 34.5983 -89.3228 148° Southeast 169 194 11,600 -300 Descending Memphis Center
Mon 01:19:50 PM 34.5561 -89.2903 148° Southeast 174 200 11,200 -567 Descending Memphis Center
Mon 01:21:50 PM 34.4639 -89.2286 151° Southeast 186 214 9,900 -700 Descending Memphis Center
Mon 01:22:50 PM 34.4178 -89.1989 152° Southeast 186 214 9,100 -750 Descending Memphis Center
Mon 01:23:50 PM 34.3653 -89.1694 155° Southeast 191 220 8,400 -650 Descending Memphis Center
Mon 01:24:50 PM 34.3211 -89.1400 151° Southeast 191 220 7,800 -595 Descending Memphis Center
Mon 01:25:41 PM 34.2833 -89.1178 154° Southeast 185 213 7,300 -350 Descending Memphis Center
Mon 01:26:50 PM 34.2328 -89.0808 149° Southeast 181 208 7,100 -94 Descending Memphis Center
Mon 01:27:48 PM 34.1972 -89.0539 148° Southeast 167 192 7,100 50 Level Memphis Center
Mon 01:28:49 PM 34.1614 -89.0242 146° Southeast 161 185 7,200 49 Climbing Memphis Center
Mon 01:29:50 PM 34.1192 -88.9947 150° Southeast 165 190 7,200  Level Memphis Center
Mon 01:30:50 PM 34.0814 -88.9728 154° Southeast 160 184 7,200  Level Memphis Center
Mon 01:31:51 PM 34.0458 -88.9483 150° Southeast 156 180 7,200 50 Level Memphis Center
Mon 01:32:50 PM 34.0100 -88.9239 151° Southeast 160 184 7,300 101 Climbing Memphis Center
Mon 01:33:50 PM 33.9722 -88.8994 152° Southeast 160 184 7,400  Climbing Memphis Center
Mon 01:34:50 PM 33.9342 -88.8750 152° Southeast 160 184 7,300 -96 Descending Memphis Center
Mon 01:35:55 PM 33.8900 -88.8508 156° South 155 178 7,200  Descending Memphis Center
Mon 01:36:50 PM 33.8544 -88.8289 153° Southeast 154 177 7,300 100 Climbing Memphis Center
Mon 01:36:55 PM 33.8544 -88.8289 153° Southeast 152 175 7,300 -91 Level Memphis Center
Mon 01:37:56 PM 33.8103 -88.8047 156° South 154 177 7,200 -104 Descending Memphis Center
Mon 01:38:50 PM 33.7744 -88.7828 153° Southeast 154 177 7,100 -98 Descending Memphis Center
Mon 01:39:58 PM 33.7325 -88.7561 152° Southeast 159 183 7,000  Descending Memphis Center
Mon 01:40:58 PM 33.6925 -88.7294 151° Southeast 155 178 7,100 99 Climbing Memphis Center
Mon 01:41:59 PM 33.6544 -88.7053 152° Southeast 156 180 7,200 49 Climbing Memphis Center
Mon 01:43:00 PM 33.6208 -88.6758 144° Southeast 157 181 7,200  Level Memphis Center
Mon 01:45:01 PM 33.5447 -88.6200 149° Southeast 159 183 7,200 66 Level Memphis Center
Mon 01:46:02 PM 33.5108 -88.5858 140° Southeast 157 181 7,400 443 Climbing Memphis Center
Mon 01:47:03 PM 33.4917 -88.5489 122° Southeast 133 153 8,100 590 Climbing Memphis Center
Mon 01:48:04 PM 33.4722 -88.5144 124° Southeast 121 139 8,600 496 Climbing Memphis Center
Mon 01:49:04 PM 33.4508 -88.4825 129° Southeast 120 138 9,100 446 Climbing Memphis Center
Mon 01:50:05 PM 33.4256 -88.4606 144° Southeast 120 138 9,500 344 Climbing Memphis Center
Mon 01:51:06 PM 33.3939 -88.4389 150° Southeast 123 142 9,800 99 Climbing Memphis Center
Mon 01:52:06 PM 33.3581 -88.4172 153° Southeast 139 160 9,700 -99 Descending Memphis Center
Mon 01:53:07 PM 33.3203 -88.3958 155° Southeast 152 175 9,600 -98 Descending Memphis Center
Mon 01:54:08 PM 33.2803 -88.3717 153° Southeast 156 180 9,500 -49 Descending Memphis Center
Mon 01:55:09 PM 33.2381 -88.3478 155° Southeast 156 180 9,500  Level Memphis Center
Mon 01:57:10 PM 33.1642 -88.3025 153° Southeast 150 173 9,500  Level Memphis Center
Mon 01:58:11 PM 33.1283 -88.2808 153° Southeast 150 173 9,500 Level Memphis Center
Mon 02:00:00 PM 33.0578 -88.2266 148° Southeast  Level FlightAware Approximate
Mon 02:07:00 PM 32.7781 -88.0351 152° Southeast  Level FlightAware Approximate
Mon 02:08:00 PM 32.7374 -88.0094 152° Southeast  Level FlightAware Approximate
Mon 02:09:00 PM 32.6967 -87.9837 152° Southeast  Level FlightAware Approximate
Mon 02:10:00 PM 32.6559 -87.9581 152° Southeast  Level FlightAware Approximate
Mon 02:10:52 PM 32.6422 -88.0325 153° Southeast 152 175 9,600  Level Atlanta Center
Mon 02:11:00 PM 32.6153 -87.9323 147° Southeast  Level FlightAware Approximate
Mon 02:11:52 PM 32.6072 -88.0111 153° Southeast 166 191 9,600  Level Atlanta Center
Mon 02:12:00 PM 32.5767 -87.9022 147° Southeast  Level FlightAware Approximate
Mon 02:12:52 PM 32.5664 -87.9847 151° Southeast 159 183 9,600  Level Atlanta Center
Mon 02:13:00 PM 32.5382 -87.8722 147° Southeast  Level FlightAware Approximate
Mon 02:13:52 PM 32.5275 -87.9608 153° Southeast 159 183 9,600  Level Atlanta Center
Mon 02:14:00 PM 32.4996 -87.8422 147° Southeast  Level FlightAware Approximate
Mon 02:14:52 PM 32.4906 -87.9394 154° Southeast 153 176 9,600  Level Atlanta Center
Mon 02:15:00 PM 32.4607 -87.8131 153° Southeast  Level FlightAware Approximate
Mon 02:16:00 PM 32.4195 -87.7884 153° Southeast  Level FlightAware Approximate
Mon 02:16:00 PM 32.4786 -87.8781 103° East  Level FlightAware Approximate
Mon 02:16:52 PM 32.4225 -87.9119 103° East 148 170 9,700  Level Atlanta Center
Mon 02:17:52 PM 32.3836 -87.8928 157° South 148 170 9,600 -50 Descending Atlanta Center
Mon 02:18:52 PM 32.3467 -87.8692 152° Southeast 148 170 9,600 50 Level Atlanta Center
Mon 02:19:52 PM 32.3097 -87.8528 159° South 148 170 9,700 50 Climbing Atlanta Center
Mon 02:20:52 PM 32.2728 -87.8317 154° Southeast 148 170 9,700  Level Atlanta Center
Mon 02:21:52 PM 32.2358 -87.8153 159° South 148 170 9,700  Level Atlanta Center
Mon 02:22:52 PM 32.1989 -87.7917 152° Southeast 148 170 9,700 50 Level Atlanta Center
Mon 02:23:52 PM 32.1642 -87.7681 150° Southeast 148 170 9,800 50 Climbing Atlanta Center
Mon 02:24:52 PM 32.1269 -87.7494 157° South 148 170 9,800  Level Atlanta Center
Mon 02:25:52 PM 32.0903 -87.7283 154° Southeast 148 170 9,800 -50 Level Atlanta Center
Mon 02:26:52 PM 32.0533 -87.7072 154° Southeast 148 170 9,700  Descending Atlanta Center
Mon 02:27:52 PM 32.0164 -87.6861 154° Southeast 148 170 9,800 50 Climbing Atlanta Center
Mon 02:28:52 PM 31.9836 -87.6628 149° Southeast 148 170 9,800 -100 Level Atlanta Center
Mon 02:29:52 PM 31.9425 -87.6364 151° Southeast 155 178 9,600 -150 Descending Atlanta Center
Mon 02:30:52 PM 31.9117 -87.6206 156° South 148 170 9,500 -25 Descending Atlanta Center
Mon 02:33:00 PM 31.8342 -87.5467 141° Southeast  Level FlightAware Approximate
Mon 02:33:52 PM 31.8136 -87.5508 141° Southeast 138 159 9,500  Level Atlanta Center
Mon 02:34:52 PM 31.7808 -87.5275 149° Southeast 138 159 9,600 50 Climbing Atlanta Center
Mon 02:35:52 PM 31.7481 -87.5042 149° Southeast 138 159 9,600  Level Atlanta Center
Mon 02:38:00 PM 31.6746 -87.4251 138° Southeast  Level FlightAware Approximate
Mon 02:38:52 PM 31.6539 -87.4372 138° Southeast 138 159 9,600  Level Atlanta Center
Mon 02:40:52 PM 31.5850 -87.4064 159° South 134 154 9,700 34 Climbing Jacksonville Center
Mon 02:41:51 PM 31.5503 -87.3853 153° Southeast 134 154 9,700 -50 Level Jacksonville Center
Mon 02:42:52 PM 31.5156 -87.3667 155° Southeast 134 154 9,600 -50 Descending Jacksonville Center
Mon 02:43:52 PM 31.4786 -87.3525 162° South 134 154 9,600 50 Level Jacksonville Center
Mon 02:44:51 PM 31.4411 -87.3436 169° South 134 154 9,700  Climbing Jacksonville Center
Mon 02:45:51 PM 31.4042 -87.3272 159° South 139 160 9,600 -100 Descending Jacksonville Center
Mon 02:46:51 PM 31.3694 -87.3061 153° Southeast 144 166 9,500 50 Descending Jacksonville Center
Mon 02:47:51 PM 31.3369 -87.2803 146° Southeast 144 166 9,700  Climbing Jacksonville Center
Mon 02:48:51 PM 31.3044 -87.2519 143° Southeast 144 166 9,500 -50 Descending Jacksonville Center
Mon 02:49:51 PM 31.2719 -87.2261 146° Southeast 144 166 9,600 105 Climbing Jacksonville Center
Mon 02:50:45 PM 31.2394 -87.2028 148° Southeast 139 160 9,700 50 Climbing Jacksonville Center
Mon 02:51:51 PM 31.2111 -87.1722 137° Southeast 144 166 9,700  Level Jacksonville Center
Mon 02:52:35 PM 31.1806 -87.1514 150° Southeast 142 163 9,700 -256 Level Jacksonville Center
Mon 02:53:48 PM 31.1378 -87.1181 146° Southeast 158 182 9,200 -358 Descending Jacksonville Center
Mon 02:54:49 PM 31.0992 -87.0872 146° Southeast 170 196 8,900 -275 Descending Jacksonville Center
Mon 02:55:37 PM 31.0689 -87.0592 142° Southeast 170 196 8,700 -522 Descending Jacksonville Center
Mon 02:56:44 PM 31.0306 -87.0139 135° Southeast 183 211 7,900 -672 Descending Jacksonville Center
Mon 02:57:51 PM 30.9947 -86.9661 131° Southeast 181 208 7,200 -563 Descending Jacksonville Center
Mon 02:58:52 PM 30.9539 -86.9353 147° Southeast 186 214 6,700 -550 Descending Jacksonville Center
Mon 02:59:51 PM 30.9172 -86.9022 142° Southeast 181 208 6,100 -610 Descending Jacksonville Center
Mon 03:02:00 PM 30.8417 -86.8257 139° Southeast  Level FlightAware Approximate
Mon 03:09:00 PM 30.5755 -86.6098 144° Southeast  Level FlightAware Approximate
Mon 03:10:00 PM 30.5381 -86.5777 144° Southeast  Level FlightAware Approximate
Mon 03:11:00 PM 30.5006 -86.5457 144° Southeast  Level FlightAware Approximate
Mon 03:12:00 PM 30.4832 -86.5260 144° Southeast  Level Estimated
Mon 03:13:00 PM 30.4832 -86.5260 144° Southeast  Level Estimated
Mon 03:14:00 PM 30.4832 -86.5260 144° Southeast  Level Estimated
Mon 03:15:00 PM 30.4832 -86.5260 144° Southeast  Level Estimated
Mon 03:16:00 PM 30.4832 -86.5260 144° Southeast  Level Estimated
Mon 03:17:00 PM 30.4832 -86.5260 144° Southeast  Level Estimated
Mon 03:18:00 PM 30.4832 -86.5260 144° Southeast  Level Estimated
Mon 03:19:00 PM 30.4832 -86.5260 144° Southeast  Level Estimated
Mon 03:20:00 PM 30.4832 -86.5260 144° Southeast  Level Estimated
Mon 03:21:00 PM 30.4832 -86.5260 144° Southeast  Level Estimated
Mon 03:22:00 PM 30.4832 -86.5260 144° Southeast  Level Estimated
Mon 03:23:00 PM 30.4832 -86.5260 144° Southeast  Level Estimated
Mon 03:24:00 PM 30.4832 -86.5260 144° Southeast  Level Estimated
Mon 03:25:00 PM 30.4832 -86.5260 144° Southeast  Level Estimated
Mon 03:26:00 PM 30.4832 -86.5260 144° Southeast  Level Estimated

Login

Don't have an account? Register now (free) for customized features, flight alerts, and more!